Time;durP1;ratioP1;P1;durP2;ratioP2;P2;SDS_P1;SDS_P2;PMS_P1;PMS_P2;Temp;Humidity;BMP_temperature;BMP_pressure;BME280_temperature;BME280_humidity;BME280_pressure;Samples;Min_cycle;Max_cycle;Signal;HPM_P1;HPM_P2
2022/04/07 00:01:19;;;;;;;4.30;1.88;;;16.90;56.50;;;;;;5072918;28;20031;-55
2022/04/07 00:03:45;;;;;;;3.58;2.08;;;16.90;57.00;;;;;;5073159;28;20024;-56
2022/04/07 00:06:10;;;;;;;3.53;1.98;;;16.90;57.40;;;;;;5073749;28;20135;-55
2022/04/07 00:08:40;;;;;;;3.83;1.80;;;16.90;58.00;;;;;;5055245;28;20366;-55
2022/04/07 00:11:07;;;;;;;3.58;2.10;;;16.80;59.50;;;;;;5073546;28;20456;-56
2022/04/07 00:13:33;;;;;;;4.13;2.00;;;16.70;60.20;;;;;;5072940;28;20084;-56
2022/04/07 00:16:00;;;;;;;2.22;1.55;;;16.60;61.00;;;;;;5073389;28;20068;-52
2022/04/07 00:18:29;;;;;;;6.70;1.60;;;16.60;61.10;;;;;;5073162;28;20032;-56
2022/04/07 00:20:55;;;;;;;2.13;1.40;;;16.50;61.20;;;;;;5073492;28;20020;-53
2022/04/07 00:23:21;;;;;;;3.13;1.50;;;16.50;61.30;;;;;;5055062;28;20465;-51
2022/04/07 00:25:48;;;;;;;3.38;1.70;;;16.50;61.90;;;;;;5055530;28;20080;-57
2022/04/07 00:28:14;;;;;;;5.38;2.00;;;16.50;62.00;;;;;;5055470;28;20020;-54
2022/04/07 00:30:40;;;;;;;4.00;1.73;;;16.50;62.40;;;;;;5072992;28;20029;-57
2022/04/07 00:33:09;;;;;;;3.65;1.33;;;16.50;62.50;;;;;;5055571;28;20031;-62
2022/04/07 00:35:36;;;;;;;4.80;1.38;;;16.50;63.00;;;;;;5072890;28;20044;-55
2022/04/07 00:38:02;;;;;;;3.20;1.65;;;16.40;63.30;;;;;;5055415;28;20024;-55
2022/04/07 00:40:28;;;;;;;3.38;1.42;;;16.40;64.10;;;;;;5055315;28;20028;-56
2022/04/07 00:42:54;;;;;;;6.25;1.40;;;16.30;64.20;;;;;;5055216;28;20375;-55
2022/04/07 00:45:22;;;;;;;2.15;1.20;;;16.10;64.60;;;;;;5054252;28;20028;-56
2022/04/07 00:47:49;;;;;;;2.92;1.50;;;16.00;64.70;;;;;;5038988;28;20035;-54
2022/04/07 00:50:16;;;;;;;2.92;1.42;;;16.00;64.30;;;;;;5072932;28;20024;-52
2022/04/07 00:52:56;;;;;;;2.72;1.30;;;16.00;64.00;;;;;;5055226;28;20496;-56
2022/04/07 00:55:23;;;;;;;2.08;1.15;;;16.00;63.60;;;;;;5054589;28;20028;-56
2022/04/07 00:57:49;;;;;;;3.03;1.17;;;16.10;63.00;;;;;;5073071;28;20107;-53
2022/04/07 01:00:15;;;;;;;1.35;1.00;;;16.10;62.60;;;;;;5011272;28;1429441;-52
2022/04/07 01:02:41;;;;;;;4.70;1.10;;;16.00;62.10;;;;;;5067752;28;20071;-52
2022/04/07 01:05:09;;;;;;;1.80;1.20;;;15.90;62.10;;;;;;5072680;28;20037;-53
2022/04/07 01:07:37;;;;;;;1.27;0.90;;;15.90;62.20;;;;;;5073081;28;20028;-55
2022/04/07 01:10:08;;;;;;;2.00;1.23;;;15.90;62.10;;;;;;5073791;28;20031;-57
2022/04/07 01:12:34;;;;;;;1.65;1.08;;;15.90;62.30;;;;;;5073355;28;20029;-53
2022/04/07 01:15:02;;;;;;;1.58;1.10;;;15.90;62.50;;;;;;5073558;28;20064;-57
2022/04/07 01:17:28;;;;;;;3.28;1.15;;;15.90;62.20;;;;;;5072957;28;20032;-55
2022/04/07 01:19:55;;;;;;;2.00;1.13;;;15.80;62.50;;;;;;5073451;28;20073;-55
2022/04/07 01:22:21;;;;;;;3.20;1.30;;;15.70;63.00;;;;;;5072951;28;20033;-59
2022/04/07 01:24:47;;;;;;;2.38;1.10;;;15.60;63.40;;;;;;5073475;28;20033;-55
2022/04/07 01:27:15;;;;;;;2.17;1.35;;;15.50;64.00;;;;;;5073265;28;20040;-52
2022/04/07 01:29:42;;;;;;;2.35;1.20;;;15.50;64.30;;;;;;5054917;28;20480;-56
2022/04/07 01:32:26;;;;;;;1.95;1.10;;;15.50;64.50;;;;;;5073375;28;20074;-56
2022/04/07 01:34:52;;;;;;;1.15;0.95;;;15.40;64.60;;;;;;5073094;28;20054;-55
2022/04/07 01:37:18;;;;;;;3.28;1.00;;;15.40;64.40;;;;;;5072932;28;20024;-55
2022/04/07 01:39:47;;;;;;;1.48;1.02;;;15.30;64.60;;;;;;5054711;28;20078;-54
2022/04/07 01:42:14;;;;;;;1.98;1.15;;;15.30;64.70;;;;;;5055148;28;20025;-55
2022/04/07 01:44:46;;;;;;;1.30;1.00;;;15.20;64.50;;;;;;5072080;28;20098;-57
2022/04/07 01:47:14;;;;;;;1.67;1.00;;;15.20;64.30;;;;;;5072711;28;20037;-57
2022/04/07 01:49:44;;;;;;;1.23;0.90;;;15.20;64.30;;;;;;5072428;28;20031;-58
2022/04/07 01:52:12;;;;;;;1.50;0.90;;;15.20;64.10;;;;;;5073213;28;20083;-54
2022/04/07 01:54:42;;;;;;;1.40;0.80;;;15.20;63.70;;;;;;5072203;28;20036;-55
2022/04/07 01:57:08;;;;;;;2.08;0.82;;;15.20;63.40;;;;;;5054933;28;20032;-57
2022/04/07 01:59:35;;;;;;;1.33;0.90;;;15.20;63.20;;;;;;5072057;28;20363;-54
2022/04/07 02:02:00;;;;;;;1.27;0.75;;;15.20;63.00;;;;;;5072445;28;20550;-52
2022/04/07 02:04:26;;;;;;;1.90;0.90;;;15.30;62.60;;;;;;5054352;28;20028;-56
2022/04/07 02:06:52;;;;;;;1.08;0.80;;;15.30;62.30;;;;;;5072251;28;20378;-55
2022/04/07 02:09:18;;;;;;;1.27;0.60;;;15.30;62.10;;;;;;5072690;28;20020;-55
2022/04/07 02:11:44;;;;;;;1.05;0.75;;;15.30;61.70;;;;;;5054209;28;20021;-55
2022/04/07 02:14:10;;;;;;;2.67;0.77;;;15.30;61.70;;;;;;5072643;28;20033;-57
2022/04/07 02:16:36;;;;;;;0.95;0.77;;;15.30;61.50;;;;;;5053762;28;20123;-55
2022/04/07 02:19:02;;;;;;;1.33;0.80;;;15.30;61.10;;;;;;5072240;28;20028;-53
2022/04/07 02:21:27;;;;;;;1.23;0.70;;;15.40;60.80;;;;;;5071885;28;20039;-56
2022/04/07 02:23:53;;;;;;;2.85;0.80;;;15.40;60.80;;;;;;5072885;28;20032;-54
2022/04/07 02:26:19;;;;;;;1.15;0.70;;;15.30;61.60;;;;;;5054764;28;20060;-53
2022/04/07 02:28:45;;;;;;;1.40;0.75;;;15.30;63.50;;;;;;5053903;28;20107;-53
2022/04/07 02:31:11;;;;;;;1.75;0.80;;;15.20;63.00;;;;;;5072088;28;20024;-50
2022/04/07 02:33:37;;;;;;;0.93;0.80;;;15.20;63.10;;;;;;5071759;28;20028;-49
2022/04/07 02:36:05;;;;;;;1.15;0.60;;;15.20;63.00;;;;;;5072281;28;20047;-56
2022/04/07 02:38:31;;;;;;;0.88;0.68;;;15.20;63.10;;;;;;5071571;28;20028;-55
2022/04/07 02:40:56;;;;;;;1.38;0.70;;;15.20;62.80;;;;;;5054230;28;20385;-56
2022/04/07 02:43:22;;;;;;;1.10;0.70;;;15.10;63.00;;;;;;5072210;28;20029;-51
2022/04/07 02:45:48;;;;;;;0.88;0.70;;;15.10;63.10;;;;;;5053728;28;20376;-54
2022/04/07 02:48:14;;;;;;;1.35;0.73;;;15.10;63.20;;;;;;5053997;28;20098;-58
2022/04/07 02:50:39;;;;;;;1.77;0.90;;;15.10;63.20;;;;;;5071493;28;20095;-54
2022/04/07 02:53:25;;;;;;;1.63;0.80;;;15.00;63.70;;;;;;5072072;28;20075;-56
2022/04/07 02:55:50;;;;;;;1.45;0.90;;;14.90;64.60;;;;;;5071630;28;20093;-56
2022/04/07 02:58:16;;;;;;;1.08;0.75;;;14.90;65.00;;;;;;5054143;28;20115;-57
2022/04/07 03:00:41;;;;;;;2.13;0.95;;;14.90;65.20;;;;;;5053359;28;20173;-57
2022/04/07 03:03:07;;;;;;;2.40;0.90;;;14.80;66.00;;;;;;5072017;28;20033;-56
2022/04/07 03:05:33;;;;;;;1.55;0.80;;;14.80;66.30;;;;;;5071179;28;20102;-56
2022/04/07 03:07:58;;;;;;;1.15;0.73;;;14.80;66.50;;;;;;5071858;28;20028;-56
2022/04/07 03:10:24;;;;;;;1.25;0.85;;;14.70;67.40;;;;;;5072009;28;20373;-54
2022/04/07 03:12:50;;;;;;;1.17;0.80;;;14.60;67.80;;;;;;5071432;28;20025;-55
2022/04/07 03:15:16;;;;;;;2.08;0.80;;;14.50;68.50;;;;;;5072032;28;20086;-56
2022/04/07 03:17:41;;;;;;;0.98;0.70;;;14.40;68.90;;;;;;5053388;28;20115;-56
2022/04/07 03:20:07;;;;;;;1.33;0.80;;;14.40;69.60;;;;;;5071512;28;20122;-57
2022/04/07 03:22:33;;;;;;;1.33;0.90;;;14.30;70.20;;;;;;5071527;28;20033;-56
2022/04/07 03:24:59;;;;;;;1.67;0.80;;;14.30;71.00;;;;;;5072193;28;20047;-54
2022/04/07 03:27:24;;;;;;;1.10;0.88;;;14.10;71.60;;;;;;5071862;28;20028;-57
2022/04/07 03:29:50;;;;;;;1.88;1.08;;;14.00;72.40;;;;;;5056364;28;20416;-60
2022/04/07 03:32:16;;;;;;;1.58;0.98;;;14.00;72.80;;;;;;5057389;28;20028;-51
2022/04/07 03:34:41;;;;;;;2.25;1.02;;;13.90;72.90;;;;;;5074781;28;20037;-54
2022/04/07 03:37:07;;;;;;;1.35;1.00;;;13.90;73.30;;;;;;5074992;28;20099;-53
2022/04/07 03:39:33;;;;;;;2.60;1.08;;;13.90;73.50;;;;;;5074874;28;20048;-55
2022/04/07 03:42:00;;;;;;;17.55;1.90;;;13.80;73.80;;;;;;5075012;28;20025;-55
2022/04/07 03:44:26;;;;;;;4.35;1.13;;;13.90;74.20;;;;;;5074938;28;20048;-53
2022/04/07 03:46:52;;;;;;;1.67;0.90;;;13.80;74.70;;;;;;5074498;28;20075;-52
2022/04/07 03:49:18;;;;;;;1.92;0.90;;;13.80;75.10;;;;;;5074782;28;20079;-54
2022/04/07 03:51:43;;;;;;;3.45;1.10;;;13.80;75.80;;;;;;5056621;28;20107;-55
2022/04/07 03:54:10;;;;;;;2.40;1.30;;;13.80;75.90;;;;;;5075517;28;20024;-54
2022/04/07 03:56:36;;;;;;;2.45;1.00;;;13.80;76.20;;;;;;5074110;28;20036;-57
2022/04/07 03:59:02;;;;;;;2.25;0.90;;;13.80;76.60;;;;;;5074162;28;20478;-54
2022/04/07 04:01:29;;;;;;;2.10;0.90;;;13.70;76.50;;;;;;5074968;28;20031;-55
2022/04/07 04:03:55;;;;;;;2.92;1.10;;;13.80;76.20;;;;;;5074227;28;20047;-55
2022/04/07 04:06:21;;;;;;;5.03;1.50;;;13.80;76.10;;;;;;5074997;28;20458;-55
2022/04/07 04:08:47;;;;;;;3.35;1.10;;;13.90;75.90;;;;;;5074796;28;20032;-56
2022/04/07 04:11:13;;;;;;;6.22;1.60;;;14.00;75.60;;;;;;5074496;28;20021;-58
2022/04/07 04:13:40;;;;;;;4.82;1.67;;;14.00;75.20;;;;;;5074171;28;20029;-55
2022/04/07 04:16:06;;;;;;;2.92;1.23;;;14.10;75.10;;;;;;5056812;28;20032;-56
2022/04/07 04:18:32;;;;;;;3.70;1.30;;;14.10;74.80;;;;;;5074431;28;20025;-56
2022/04/07 04:20:58;;;;;;;1.73;1.10;;;14.20;74.60;;;;;;5075098;28;20020;-56
2022/04/07 04:23:24;;;;;;;5.80;1.48;;;14.20;74.20;;;;;;5056806;28;20040;-56
2022/04/07 04:25:50;;;;;;;11.48;2.17;;;14.20;74.00;;;;;;5056293;28;20082;-55
2022/04/07 04:28:16;;;;;;;5.30;1.30;;;14.20;73.90;;;;;;5056672;28;20025;-55
2022/04/07 04:30:42;;;;;;;2.17;1.00;;;14.20;73.80;;;;;;5073835;28;20047;-56
2022/04/07 04:33:08;;;;;;;2.47;1.10;;;14.30;73.90;;;;;;5074399;28;20085;-55
2022/04/07 04:35:34;;;;;;;3.85;1.15;;;14.20;73.70;;;;;;5074474;28;20123;-56
2022/04/07 04:37:59;;;;;;;2.42;1.10;;;14.20;73.80;;;;;;5074514;28;20465;-55
2022/04/07 04:43:09;;;;;;;2.53;1.15;;;14.20;73.60;;;;;;5073833;28;20063;-58
2022/04/07 04:45:35;;;;;;;1.98;1.00;;;14.10;73.60;;;;;;5073395;28;20485;-54
2022/04/07 04:48:02;;;;;;;3.15;1.25;;;14.10;73.70;;;;;;5056371;28;20025;-57
2022/04/07 04:50:27;;;;;;;3.13;1.27;;;14.00;73.80;;;;;;5039504;28;20033;-56
2022/04/07 04:52:53;;;;;;;2.75;1.40;;;14.00;73.80;;;;;;5073577;28;20021;-55
2022/04/07 04:55:19;;;;;;;1.67;1.10;;;14.10;73.50;;;;;;5073908;28;20500;-56
2022/04/07 04:57:45;;;;;;;4.55;1.20;;;14.10;72.90;;;;;;5073378;28;20113;-58
2022/04/07 05:00:11;;;;;;;3.78;1.20;;;14.10;72.70;;;;;;5073939;28;20053;-54
2022/04/07 05:02:39;;;;;;;1.83;1.25;;;14.10;72.10;;;;;;5055325;28;20425;-56
2022/04/07 05:05:06;;;;;;;2.75;1.00;;;14.20;71.80;;;;;;5073842;28;20037;-56
2022/04/07 05:07:32;;;;;;;4.10;1.00;;;14.20;71.10;;;;;;5073672;28;20050;-52
2022/04/07 05:09:58;;;;;;;1.48;1.10;;;14.20;71.00;;;;;;5055276;28;20081;-54
2022/04/07 05:12:24;;;;;;;4.55;1.20;;;14.30;70.80;;;;;;5056010;28;20028;-55
2022/04/07 05:14:49;;;;;;;2.45;1.10;;;14.30;70.50;;;;;;5072750;28;20043;-55
2022/04/07 05:17:18;;;;;;;3.40;1.42;;;14.30;70.30;;;;;;5055551;28;20111;-54
2022/04/07 05:19:44;;;;;;;2.35;1.23;;;14.40;70.40;;;;;;5054822;28;20503;-55
2022/04/07 05:22:10;;;;;;;2.55;1.05;;;14.40;70.40;;;;;;5073203;28;20035;-57
2022/04/07 05:24:36;;;;;;;5.20;1.20;;;14.40;70.50;;;;;;5072057;28;20021;-58
2022/04/07 05:27:02;;;;;;;2.88;1.30;;;14.40;70.30;;;;;;5073165;28;20433;-57
2022/04/07 05:29:27;;;;;;;2.85;1.35;;;14.40;70.30;;;;;;5055300;28;20542;-56
2022/04/07 05:31:53;;;;;;;4.78;1.30;;;14.40;70.20;;;;;;5054603;28;20028;-54
2022/04/07 05:34:19;;;;;;;6.07;1.73;;;14.40;70.40;;;;;;5072247;28;20362;-54
2022/04/07 05:36:45;;;;;;;3.75;1.77;;;14.40;70.40;;;;;;5071723;28;20029;-52
2022/04/07 05:39:12;;;;;;;2.50;1.10;;;14.40;70.50;;;;;;5072458;28;20026;-55
2022/04/07 05:41:39;;;;;;;1.83;1.33;;;14.40;70.40;;;;;;5071323;28;20024;-52
2022/04/07 05:44:05;;;;;;;2.90;1.45;;;14.40;70.30;;;;;;5071812;28;20493;-51
2022/04/07 05:46:32;;;;;;;3.28;1.77;;;14.40;70.40;;;;;;5071660;28;20040;-53
2022/04/07 05:48:57;;;;;;;8.10;1.70;;;14.40;70.40;;;;;;5052970;28;20040;-54
2022/04/07 05:51:23;;;;;;;3.35;1.50;;;14.50;70.30;;;;;;5071523;28;20086;-55
2022/04/07 05:53:49;;;;;;;4.53;1.50;;;14.60;70.20;;;;;;5070636;28;20469;-54
2022/04/07 05:56:15;;;;;;;4.82;2.58;;;14.60;70.10;;;;;;5071242;28;20028;-54
2022/04/07 05:58:40;;;;;;;3.42;1.95;;;14.70;69.90;;;;;;5052831;28;20024;-63
2022/04/07 06:01:06;;;;;;;3.65;1.67;;;14.70;69.80;;;;;;5071807;28;20056;-55
2022/04/07 06:03:32;;;;;;;4.63;1.60;;;14.70;69.70;;;;;;5071617;28;20462;-53
2022/04/07 06:05:58;;;;;;;2.67;1.55;;;14.80;69.60;;;;;;5071592;28;20034;-53
2022/04/07 06:08:24;;;;;;;3.10;1.70;;;14.90;69.60;;;;;;5071650;28;20039;-53
2022/04/07 06:10:50;;;;;;;7.00;1.95;;;15.00;69.20;;;;;;5071580;28;20025;-55
2022/04/07 06:13:15;;;;;;;6.15;1.80;;;15.00;69.00;;;;;;5071978;28;20111;-56
2022/04/07 06:15:42;;;;;;;3.13;2.08;;;15.00;68.90;;;;;;5070821;28;20529;-54
2022/04/07 06:18:27;;;;;;;17.92;5.13;;;15.00;69.00;;;;;;5054276;28;20119;-54
2022/04/07 06:20:53;;;;;;;10.43;3.05;;;14.90;68.90;;;;;;5053910;28;20029;-55
2022/04/07 06:23:19;;;;;;;12.07;2.97;;;14.90;69.10;;;;;;5071913;28;20074;-56
2022/04/07 06:25:44;;;;;;;6.47;3.22;;;15.00;69.30;;;;;;5053272;28;20024;-55
2022/04/07 06:28:10;;;;;;;8.02;2.30;;;15.10;69.00;;;;;;5053439;28;20453;-56
2022/04/07 06:30:36;;;;;;;6.07;1.77;;;15.20;68.40;;;;;;5053948;28;20036;-55
2022/04/07 06:33:02;;;;;;;6.55;2.28;;;15.20;68.00;;;;;;5053293;28;20449;-57
2022/04/07 06:35:28;;;;;;;2.92;2.17;;;15.30;68.10;;;;;;5052505;28;20036;-57
2022/04/07 06:37:59;;;;;;;6.05;2.13;;;15.40;67.50;;;;;;5054431;28;20436;-56
2022/04/07 06:40:29;;;;;;;7.10;2.00;;;15.50;67.40;;;;;;5054769;28;20056;-57
2022/04/07 06:42:56;;;;;;;2.85;1.70;;;15.60;66.90;;;;;;5054713;28;20032;-53
2022/04/07 06:45:23;;;;;;;12.75;2.72;;;15.70;66.10;;;;;;5072490;28;20021;-57
2022/04/07 06:47:49;;;;;;;6.72;2.45;;;15.90;65.80;;;;;;5071451;28;20029;-58
2022/04/07 06:50:16;;;;;;;5.38;2.30;;;16.10;64.30;;;;;;5071672;28;20490;-57
2022/04/07 06:52:43;;;;;;;12.27;5.10;;;16.20;64.30;;;;;;5052545;28;20032;-67
2022/04/07 06:55:10;;;;;;;4.93;2.10;;;16.30;63.40;;;;;;5071067;28;20482;-55
2022/04/07 06:57:54;;;;;;;3.88;1.80;;;16.30;62.70;;;;;;5071143;28;20025;-57
2022/04/07 07:00:29;;;;;;;8.20;2.13;;;16.40;61.70;;;;;;5051892;28;20060;-53
2022/04/07 07:02:56;;;;;;;5.82;2.00;;;16.30;61.60;;;;;;5071580;28;20036;-53
2022/04/07 07:05:24;;;;;;;5.50;1.92;;;16.40;61.90;;;;;;5057131;28;20032;-50
2022/04/07 07:07:50;;;;;;;3.67;1.75;;;16.70;61.70;;;;;;5056280;28;20083;-54
2022/04/07 07:10:24;;;;;;;5.40;1.95;;;17.00;60.50;;;;;;5075330;28;20104;-55
2022/04/07 07:12:51;;;;;;;3.75;1.90;;;16.80;59.40;;;;;;5075129;28;20029;-53
2022/04/07 07:15:17;;;;;;;2.63;1.55;;;16.80;59.90;;;;;;5057292;28;20029;-53
2022/04/07 07:17:43;;;;;;;5.90;1.67;;;16.80;60.10;;;;;;5075247;28;20024;-59
2022/04/07 07:20:11;;;;;;;7.55;1.80;;;16.90;60.10;;;;;;5057495;28;20031;-52
2022/04/07 07:22:37;;;;;;;4.78;1.77;;;16.90;59.50;;;;;;5075708;28;20115;-56
2022/04/07 07:25:04;;;;;;;4.20;1.75;;;17.00;59.60;;;;;;5057003;28;20230;-53
2022/04/07 07:27:36;;;;;;;4.80;1.90;;;17.00;59.60;;;;;;5057496;28;20477;-53
2022/04/07 07:30:01;;;;;;;5.28;1.90;;;16.90;59.60;;;;;;5056818;28;20166;-56
2022/04/07 07:32:27;;;;;;;4.50;2.08;;;17.00;59.50;;;;;;5057186;28;20131;-54
2022/04/07 07:34:53;;;;;;;6.55;2.40;;;17.00;59.20;;;;;;5074971;28;20040;-56
2022/04/07 07:37:19;;;;;;;10.10;2.65;;;17.10;59.20;;;;;;5057243;28;20027;-54
2022/04/07 07:39:45;;;;;;;8.13;3.35;;;17.10;58.10;;;;;;5074139;28;20024;-66
2022/04/07 07:42:11;;;;;;;11.02;2.70;;;17.00;58.80;;;;;;5074919;28;20508;-55
2022/04/07 07:44:36;;;;;;;8.38;2.10;;;17.00;58.70;;;;;;5072978;28;20028;-54
2022/04/07 07:47:02;;;;;;;6.07;2.40;;;17.00;58.80;;;;;;5052669;28;20025;-57
2022/04/07 07:49:28;;;;;;;6.18;2.40;;;16.90;58.80;;;;;;5074783;28;20031;-54
2022/04/07 07:51:54;;;;;;;5.88;1.95;;;16.80;59.00;;;;;;5073537;28;20466;-55
2022/04/07 07:54:19;;;;;;;6.30;2.00;;;16.70;59.00;;;;;;5074635;28;20029;-52
2022/04/07 07:56:45;;;;;;;4.78;1.65;;;16.80;59.40;;;;;;5056025;28;20037;-64
2022/04/07 07:59:11;;;;;;;4.47;1.98;;;17.00;59.10;;;;;;5055604;28;20029;-52
2022/04/07 08:01:37;;;;;;;6.97;2.10;;;17.10;58.70;;;;;;5073900;28;20111;-55
2022/04/07 08:04:02;;;;;;;10.13;2.58;;;17.20;58.30;;;;;;5073652;28;20025;-55
2022/04/07 08:06:29;;;;;;;7.07;2.50;;;17.40;58.10;;;;;;5072882;28;20528;-56
2022/04/07 08:08:55;;;;;;;5.03;1.92;;;17.70;57.20;;;;;;5055987;28;20051;-56
2022/04/07 08:11:21;;;;;;;3.25;2.40;;;17.90;56.20;;;;;;5056747;28;20469;-57
2022/04/07 08:13:47;;;;;;;4.18;2.50;;;18.50;55.10;;;;;;5074050;28;20024;-67
2022/04/07 08:16:12;;;;;;;7.50;2.00;;;20.90;51.00;;;;;;5074022;28;20037;-61
2022/04/07 08:18:38;;;;;;;4.03;1.80;;;23.10;45.40;;;;;;5056173;28;20322;-61
2022/04/07 08:21:04;;;;;;;3.40;1.60;;;22.60;44.30;;;;;;5055754;28;20029;-55
2022/04/07 08:23:29;;;;;;;4.95;1.60;;;21.70;45.40;;;;;;5073226;28;20487;-62
2022/04/07 08:25:56;;;;;;;9.68;1.70;;;21.20;46.50;;;;;;5055664;28;20032;-58
2022/04/07 08:28:22;;;;;;;6.72;2.00;;;21.00;46.80;;;;;;5073741;28;20029;-56
2022/04/07 08:30:48;;;;;;;2.97;2.20;;;20.70;47.70;;;;;;5055720;28;20028;-56
2022/04/07 08:33:14;;;;;;;4.90;1.75;;;20.90;47.10;;;;;;5073764;28;20031;-56
2022/04/07 08:35:40;;;;;;;4.97;1.50;;;22.90;44.80;;;;;;5055942;28;20432;-54
2022/04/07 08:38:05;;;;;;;4.97;1.70;;;23.50;42.30;;;;;;5055765;28;20027;-54
2022/04/07 08:40:34;;;;;;;2.72;1.50;;;22.90;41.60;;;;;;5074313;28;20085;-56
2022/04/07 08:43:00;;;;;;;3.83;2.10;;;21.70;43.00;;;;;;5055489;28;20060;-56
2022/04/07 08:45:28;;;;;;;3.90;1.42;;;21.40;44.40;;;;;;5073507;28;20067;-58
2022/04/07 08:47:56;;;;;;;2.92;1.70;;;21.10;44.10;;;;;;5054667;28;20033;-55
2022/04/07 08:50:22;;;;;;;3.97;1.80;;;20.30;45.40;;;;;;5055207;28;20054;-53
2022/04/07 08:52:48;;;;;;;4.13;1.70;;;19.60;47.10;;;;;;5073346;28;20029;-56
2022/04/07 08:55:14;;;;;;;5.38;1.85;;;19.30;48.00;;;;;;5072691;28;20393;-55
2022/04/07 08:57:41;;;;;;;5.00;2.15;;;19.10;48.70;;;;;;5073659;28;20021;-56
2022/04/07 09:00:08;;;;;;;5.65;2.30;;;19.10;49.10;;;;;;5054865;28;20303;-57
2022/04/07 09:02:34;;;;;;;2.95;1.70;;;19.30;48.40;;;;;;5055431;28;20115;-53
2022/04/07 09:05:00;;;;;;;4.40;1.55;;;19.50;48.00;;;;;;5072909;28;20129;-56
2022/04/07 09:07:33;;;;;;;4.32;1.95;;;19.70;47.80;;;;;;5073791;28;20048;-54
2022/04/07 09:10:01;;;;;;;2.85;1.80;;;19.50;46.40;;;;;;5072878;28;20035;-59
2022/04/07 09:12:27;;;;;;;4.78;1.40;;;19.20;47.10;;;;;;5055515;28;20111;-54
2022/04/07 09:14:59;;;;;;;5.82;1.52;;;19.00;47.30;;;;;;5054808;28;20082;-56
2022/04/07 09:17:26;;;;;;;2.45;1.30;;;18.80;48.00;;;;;;5055616;28;20031;-55
2022/04/07 09:19:53;;;;;;;4.88;1.40;;;18.90;48.10;;;;;;5072981;28;20362;-56
2022/04/07 09:22:30;;;;;;;3.25;1.50;;;18.80;47.30;;;;;;5073255;28;20051;-56
2022/04/07 09:24:55;;;;;;;3.75;1.52;;;18.80;47.90;;;;;;5054800;28;20134;-56
2022/04/07 09:27:21;;;;;;;6.68;1.50;;;18.90;47.00;;;;;;5054750;28;20454;-59
2022/04/07 09:29:47;;;;;;;2.35;1.27;;;19.20;46.70;;;;;;5073324;28;20027;-54
2022/04/07 09:32:45;;;;;;;12.48;1.65;;;19.40;46.30;;;;;;5054162;28;20032;-58
2022/04/07 09:35:12;;;;;;;2.92;1.50;;;19.60;45.40;;;;;;5072259;28;20086;-56
2022/04/07 09:37:40;;;;;;;5.43;1.90;;;19.70;45.50;;;;;;5072618;28;20028;-57
2022/04/07 09:40:07;;;;;;;4.45;1.30;;;19.80;45.20;;;;;;5072549;28;20108;-56
2022/04/07 09:42:34;;;;;;;2.85;1.60;;;19.90;44.80;;;;;;5073095;28;20099;-57
2022/04/07 09:45:01;;;;;;;3.75;1.40;;;19.90;44.70;;;;;;5054282;28;20575;-56
2022/04/07 09:47:45;;;;;;;2.90;1.30;;;20.00;43.90;;;;;;5071886;28;20450;-54
2022/04/07 09:50:29;;;;;;;6.18;1.42;;;19.80;44.50;;;;;;5072101;28;20305;-54
2022/04/07 09:52:58;;;;;;;3.67;1.80;;;20.10;44.50;;;;;;5071867;28;20120;-53
2022/04/07 09:55:42;;;;;;;4.03;1.35;;;20.30;44.20;;;;;;5072435;28;20123;-55
2022/04/07 09:58:10;;;;;;;2.58;1.42;;;20.30;43.50;;;;;;5054253;28;20028;-55
2022/04/07 10:00:36;;;;;;;6.78;1.45;;;20.40;42.60;;;;;;5072512;28;20072;-58
2022/04/07 10:03:03;;;;;;;2.30;1.30;;;20.40;41.60;;;;;;5071713;28;20029;-58
2022/04/07 10:05:30;;;;;;;4.10;1.52;;;20.30;41.30;;;;;;5072362;28;20035;-55
2022/04/07 10:07:59;;;;;;;2.88;1.70;;;20.30;41.20;;;;;;5053742;28;20319;-58
2022/04/07 10:39:41;;;;;;;3.40;1.80;;;18.70;43.20;;;;;;5070712;28;20357;-52
2022/04/07 10:42:09;;;;;;;4.90;1.90;;;20.10;40.10;;;;;;5065841;28;20029;-63
2022/04/07 10:44:36;;;;;;;5.70;1.50;;;20.30;39.30;;;;;;5063039;28;20033;-55
2022/04/07 10:47:05;;;;;;;5.22;1.52;;;20.30;38.60;;;;;;5065294;28;20075;-57
2022/04/07 10:49:31;;;;;;;6.72;2.08;;;20.30;38.80;;;;;;5065908;28;20067;-60
2022/04/07 10:51:59;;;;;;;5.68;1.70;;;20.20;39.20;;;;;;5063327;28;20078;-60
2022/04/07 10:54:28;;;;;;;5.75;1.50;;;20.30;38.50;;;;;;5065196;28;20420;-57
2022/04/07 10:57:01;;;;;;;6.45;1.27;;;20.40;38.60;;;;;;5062947;28;20044;-53
2022/04/07 10:59:32;;;;;;;5.28;1.60;;;20.40;37.60;;;;;;5060203;28;20059;-59
2022/04/07 11:02:10;;;;;;;4.03;1.50;;;20.30;38.20;;;;;;5066667;28;20032;-60
2022/04/07 11:04:37;;;;;;;9.63;1.58;;;20.20;38.50;;;;;;5056233;28;20021;-59
2022/04/07 11:07:11;;;;;;;19.95;14.68;;;20.30;39.00;;;;;;5061911;28;20368;-62
2022/04/07 11:09:57;;;;;;;4.18;1.85;;;20.30;39.00;;;;;;5063183;28;20032;-61
2022/04/07 11:12:52;;;;;;;4.78;1.40;;;20.40;38.90;;;;;;5063890;28;20036;-60
2022/04/07 11:15:24;;;;;;;7.07;1.40;;;20.30;38.80;;;;;;5039787;28;20044;-59
2022/04/07 11:17:53;;;;;;;9.18;1.38;;;20.20;39.30;;;;;;5058423;28;20037;-62
2022/04/07 11:20:28;;;;;;;7.45;1.40;;;20.20;39.70;;;;;;5060873;28;20025;-59
2022/04/07 11:22:58;;;;;;;6.60;2.70;;;20.30;39.70;;;;;;5062719;28;20016;-55
2022/04/07 11:25:24;;;;;;;5.47;1.40;;;20.40;39.30;;;;;;5064094;28;20017;-59
2022/04/07 11:28:10;;;;;;;2.67;1.38;;;20.40;39.50;;;;;;5067183;28;20028;-60
2022/04/07 11:30:40;;;;;;;3.00;1.20;;;20.40;39.50;;;;;;5064072;28;20056;-59
2022/04/07 11:33:27;;;;;;;3.33;1.30;;;20.60;39.30;;;;;;5066278;28;20107;-60
2022/04/07 11:35:59;;;;;;;3.58;1.30;;;20.50;39.60;;;;;;5064902;28;20029;-61
2022/04/07 11:38:28;;;;;;;5.22;2.47;;;20.50;39.50;;;;;;5052941;28;20056;-60
2022/04/07 11:41:13;;;;;;;4.38;1.00;;;20.60;39.50;;;;;;5071791;28;20467;-60
2022/04/07 11:43:43;;;;;;;5.18;1.42;;;20.50;39.90;;;;;;5045319;28;20116;-58
2022/04/07 11:46:09;;;;;;;4.38;1.70;;;20.50;39.10;;;;;;5049373;28;20223;-59
2022/04/07 11:48:37;;;;;;;3.08;1.13;;;20.50;38.70;;;;;;5047890;28;20029;-58
2022/04/07 11:51:15;;;;;;;3.65;1.50;;;20.50;39.30;;;;;;5044292;28;20041;-58
2022/04/07 11:53:52;;;;;;;5.45;1.40;;;20.40;38.80;;;;;;5039724;28;20029;-59
2022/04/07 11:56:20;;;;;;;4.15;1.60;;;20.60;39.00;;;;;;5051289;28;20478;-58
2022/04/07 11:58:56;;;;;;;3.83;1.45;;;20.90;38.60;;;;;;5053172;28;20459;-57
2022/04/07 12:01:23;;;;;;;3.10;1.17;;;21.00;37.60;;;;;;5046117;28;20104;-57
2022/04/07 12:03:58;;;;;;;4.30;1.42;;;21.00;37.30;;;;;;5040370;28;20064;-57
2022/04/07 12:06:30;;;;;;;4.40;1.40;;;20.90;37.00;;;;;;5035046;28;20538;-58
2022/04/07 12:08:57;;;;;;;3.63;1.88;;;20.80;37.10;;;;;;5039857;28;20044;-58
2022/04/07 12:11:24;;;;;;;7.10;1.88;;;20.80;37.30;;;;;;5049692;28;20039;-57
2022/04/07 12:13:52;;;;;;;9.45;2.20;;;20.90;37.10;;;;;;5050631;28;20067;-60
2022/04/07 12:16:18;;;;;;;4.30;1.92;;;21.00;36.30;;;;;;5045529;28;20029;-60
2022/04/07 12:18:55;;;;;;;9.05;1.50;;;21.10;36.20;;;;;;5053094;28;20025;-57
2022/04/07 12:21:23;;;;;;;5.93;1.60;;;21.20;35.60;;;;;;5040852;28;20029;-56
2022/04/07 12:24:09;;;;;;;7.85;2.00;;;21.20;35.60;;;;;;5052874;28;20485;-59
2022/04/07 12:26:46;;;;;;;5.07;1.20;;;21.20;35.40;;;;;;5044535;28;20490;-57
2022/04/07 12:29:23;;;;;;;3.90;1.40;;;20.90;35.00;;;;;;5043813;28;20041;-57
2022/04/07 12:32:00;;;;;;;8.73;1.38;;;20.70;35.60;;;;;;5052558;28;20021;-60
2022/04/07 12:34:27;;;;;;;7.20;1.38;;;20.50;35.80;;;;;;5045257;28;20091;-57
2022/04/07 12:36:53;;;;;;;5.63;1.48;;;20.60;35.70;;;;;;5048601;28;20060;-63
2022/04/07 12:39:20;;;;;;;6.90;1.40;;;20.70;36.60;;;;;;5045754;28;20140;-58
2022/04/07 12:41:50;;;;;;;6.03;1.13;;;20.90;36.00;;;;;;5047508;28;20483;-59
2022/04/07 12:44:31;;;;;;;2.00;1.10;;;21.00;36.00;;;;;;5046512;28;20132;-59
2022/04/07 12:46:58;;;;;;;4.40;1.15;;;21.00;36.30;;;;;;5042783;28;20043;-57
2022/04/07 12:49:25;;;;;;;6.70;2.08;;;20.90;36.40;;;;;;5051973;28;20031;-54
2022/04/07 12:52:37;;;;;;;10.48;2.25;;;21.00;36.50;;;;;;5051036;28;20029;-58
2022/04/07 12:55:10;;;;;;;13.88;6.90;;;21.10;35.90;;;;;;5009752;28;20034;-58
2022/04/07 12:57:40;;;;;;;7.50;2.40;;;21.20;36.20;;;;;;5047944;28;20076;-59
2022/04/07 13:00:10;;;;;;;6.40;1.50;;;21.20;35.50;;;;;;5050984;28;20021;-58
2022/04/07 13:02:53;;;;;;;2.28;1.10;;;21.20;35.60;;;;;;5050057;28;20024;-59
2022/04/07 13:05:28;;;;;;;3.30;1.40;;;21.30;35.60;;;;;;5046998;28;20120;-57
2022/04/07 13:07:55;;;;;;;5.50;1.10;;;21.60;35.00;;;;;;5054395;28;20038;-60
2022/04/07 13:10:22;;;;;;;4.00;1.23;;;21.70;34.70;;;;;;5073446;28;20447;-59
2022/04/07 13:12:48;;;;;;;8.35;1.38;;;21.90;34.10;;;;;;5051896;28;20029;-62
2022/04/07 13:15:14;;;;;;;3.67;1.58;;;22.20;33.30;;;;;;5039216;28;20521;-63
2022/04/07 13:17:40;;;;;;;5.70;1.70;;;22.40;32.60;;;;;;5040019;28;20200;-53
2022/04/07 13:20:07;;;;;;;8.68;3.53;;;22.50;32.50;;;;;;5042769;28;20098;-56
2022/04/07 13:22:33;;;;;;;10.85;2.20;;;22.60;31.90;;;;;;5049470;28;20023;-54